Botsford, Connecticut
Current Conditions -  °F | °C
As of 6:50 AM on Thursday 23 Oct 2014 (Local Time) from KOXC Reporting Station
Light Rain Light Rain  
Wind Chill: 42°   Ceiling: 1500
Heat Index: 48°   Visibility: 10mi
Dew Point: 43°   Wind: 18mph
Humidity: 82%   Direction: 20°NNE
Pressure: 29.68"   Gusts: 26mph
Location:  41.37°N, 73.26°W
Report Text: KOXC 231050Z 02016G23KT 10SM -RA OVC015 09/06 A2968
Loading
Personal Weather Stations






























Interactive Weather Map
Tropical Storm Tracking
New forecast layout! Learn more

10-Day Weather Forecast

Advertisements
Track Severe Weather on mobile